createdAt,value
2023-09-17T00:00:12.743Z,2.12
2023-09-17T00:03:15.705Z,2.30
2023-09-17T00:06:18.802Z,1.90
2023-09-17T00:09:24.402Z,2.78
2023-09-17T00:12:27.196Z,2.10
2023-09-17T00:15:29.964Z,3.55
2023-09-17T00:18:32.770Z,2.20
2023-09-17T00:21:35.569Z,2.00
2023-09-17T00:24:38.330Z,2.00
2023-09-17T00:27:41.124Z,4.55
2023-09-17T00:30:46.895Z,2.42
2023-09-17T00:33:49.869Z,2.60
2023-09-17T00:36:52.665Z,2.33
2023-09-17T00:39:55.462Z,2.12
2023-09-17T00:42:58.169Z,2.30
2023-09-17T00:46:00.915Z,3.00
2023-09-17T00:49:13.879Z,2.30
2023-09-17T00:52:19.166Z,2.00
2023-09-17T00:55:23.440Z,2.22
2023-09-17T00:58:29.820Z,1.80
2023-09-17T01:01:32.989Z,1.90
2023-09-17T01:04:35.996Z,1.90
2023-09-17T01:07:39.770Z,3.03
2023-09-17T01:10:43.245Z,2.65
2023-09-17T01:13:53.265Z,1.90
2023-09-17T01:16:58.465Z,1.90
2023-09-17T01:20:01.832Z,3.13
2023-09-17T01:23:29.116Z,2.75
2023-09-17T01:26:32.111Z,1.80
2023-09-17T01:29:44.748Z,2.08
2023-09-17T01:32:47.634Z,2.30
2023-09-17T01:35:55.662Z,1.80
2023-09-17T01:39:05.614Z,2.45
2023-09-17T01:42:08.449Z,2.65
2023-09-17T01:45:15.549Z,2.10
2023-09-17T01:48:18.945Z,1.98
2023-09-17T01:51:22.896Z,1.83
2023-09-17T01:54:26.818Z,2.35
2023-09-17T01:57:29.895Z,2.47
2023-09-17T02:00:33.558Z,1.87
2023-09-17T02:03:36.396Z,2.92
2023-09-17T02:06:39.157Z,2.17
2023-09-17T02:09:41.909Z,2.15
2023-09-17T02:12:44.531Z,2.33
2023-09-17T02:15:47.259Z,1.92
2023-09-17T02:18:53.045Z,2.03
2023-09-17T02:21:55.781Z,2.00
2023-09-17T02:24:58.648Z,2.10
2023-09-17T02:28:01.530Z,1.80
2023-09-17T02:31:04.447Z,1.83
2023-09-17T02:34:07.202Z,1.90
2023-09-17T02:37:09.952Z,2.17
2023-09-17T02:40:12.708Z,2.83
2023-09-17T02:43:15.736Z,2.42
2023-09-17T02:46:19.594Z,2.87
2023-09-17T02:49:23.219Z,2.40
2023-09-17T02:52:25.981Z,1.90
2023-09-17T02:55:28.756Z,1.70
2023-09-17T02:58:31.462Z,2.10
2023-09-17T03:01:34.395Z,1.90
2023-09-17T03:04:37.766Z,1.80
2023-09-17T03:07:40.721Z,2.17
2023-09-17T03:10:44.123Z,1.87
2023-09-17T03:13:47.727Z,2.22
2023-09-17T03:16:50.601Z,2.50
2023-09-17T03:19:53.516Z,2.92
2023-09-17T03:22:58.573Z,1.97
2023-09-17T03:26:02.351Z,1.83
2023-09-17T03:29:05.178Z,2.67
2023-09-17T03:32:08.043Z,2.15
2023-09-17T03:35:10.852Z,1.80
2023-09-17T03:38:15.283Z,2.33
2023-09-17T03:41:18.079Z,1.62
2023-09-17T03:44:22.049Z,2.00
2023-09-17T03:47:24.739Z,1.70
2023-09-17T03:50:29.143Z,1.60
2023-09-17T03:53:31.953Z,2.40
2023-09-17T03:56:35.106Z,3.47
2023-09-17T03:59:37.996Z,2.03
2023-09-17T04:02:43.390Z,2.00
2023-09-17T04:05:49.634Z,2.00
2023-09-17T04:08:52.427Z,3.63
2023-09-17T04:11:55.168Z,2.10
2023-09-17T04:14:58.885Z,1.90
2023-09-17T04:18:01.620Z,2.12
2023-09-17T04:21:05.192Z,2.00
2023-09-17T04:24:08.096Z,2.13
2023-09-17T04:27:11.112Z,2.10
2023-09-17T04:30:18.006Z,1.70
2023-09-17T04:33:22.188Z,2.05
2023-09-17T04:36:25.261Z,3.05
2023-09-17T04:39:28.795Z,1.87
2023-09-17T04:42:33.087Z,1.90
2023-09-17T04:45:40.263Z,2.35
2023-09-17T04:48:43.287Z,1.80
2023-09-17T04:51:46.038Z,1.80
2023-09-17T04:54:48.728Z,1.80
2023-09-17T04:57:52.678Z,1.90
2023-09-17T05:00:55.848Z,2.12
2023-09-17T05:03:59.221Z,2.15
2023-09-17T05:07:02.054Z,2.00
2023-09-17T05:10:06.399Z,1.90
2023-09-17T05:13:09.569Z,2.90
2023-09-17T05:16:12.495Z,2.50
2023-09-17T05:19:15.332Z,2.22
2023-09-17T05:22:18.121Z,2.08
2023-09-17T05:25:20.916Z,3.20
2023-09-17T05:28:25.219Z,2.33
2023-09-17T05:31:31.598Z,2.95
2023-09-17T05:34:34.449Z,2.10
2023-09-17T05:37:37.303Z,2.42
2023-09-17T05:40:40.136Z,2.83
2023-09-17T05:43:42.955Z,1.98
2023-09-17T05:46:45.779Z,3.30
2023-09-17T05:49:48.614Z,2.95
2023-09-17T05:52:51.436Z,2.72
2023-09-17T05:55:54.252Z,2.97
2023-09-17T05:58:57.136Z,3.00
2023-09-17T06:02:00.689Z,3.15
2023-09-17T06:05:04.686Z,2.42
2023-09-17T06:08:07.655Z,3.47
2023-09-17T06:11:10.631Z,2.40
2023-09-17T06:14:13.785Z,3.15
2023-09-17T06:17:16.540Z,2.55
2023-09-17T06:20:20.128Z,3.37
2023-09-17T06:23:22.861Z,3.20
2023-09-17T06:26:25.973Z,2.60
2023-09-17T06:29:28.651Z,3.03
2023-09-17T06:32:31.678Z,3.62
2023-09-17T06:35:34.458Z,2.95
2023-09-17T06:38:37.322Z,5.68
2023-09-17T06:41:43.228Z,3.93
2023-09-17T06:44:49.482Z,3.65
2023-09-17T06:47:52.332Z,4.55
2023-09-17T06:50:55.218Z,5.00
2023-09-17T06:53:57.895Z,3.15
2023-09-17T06:57:03.262Z,3.93
2023-09-17T07:00:07.470Z,5.55
2023-09-17T07:03:10.310Z,4.30
2023-09-17T07:06:13.026Z,5.47
2023-09-17T07:09:15.895Z,3.08
2023-09-17T07:12:20.328Z,3.20
2023-09-17T07:15:23.495Z,3.72
2023-09-17T07:18:27.629Z,3.42
2023-09-17T07:21:31.287Z,3.95
2023-09-17T07:24:34.182Z,4.07
2023-09-17T07:27:37.407Z,3.80
2023-09-17T07:30:40.301Z,5.03
2023-09-17T07:33:43.759Z,5.35
2023-09-17T07:36:46.482Z,4.43
2023-09-17T07:39:55.192Z,4.20
2023-09-17T07:42:58.044Z,3.53
2023-09-17T07:46:00.825Z,3.80
2023-09-17T07:49:03.671Z,4.57
2023-09-17T07:52:07.457Z,4.00
2023-09-17T07:55:10.643Z,4.70
2023-09-17T07:58:13.508Z,4.50
2023-09-17T08:01:16.545Z,4.40
2023-09-17T08:04:19.345Z,4.53
2023-09-17T08:07:22.389Z,4.12
2023-09-17T08:10:25.252Z,4.45
2023-09-17T08:13:28.516Z,4.00
2023-09-17T08:16:32.804Z,4.47
2023-09-17T08:19:36.377Z,5.03
2023-09-17T08:22:40.724Z,3.95
2023-09-17T08:25:43.746Z,4.18
2023-09-17T08:28:47.240Z,5.43
2023-09-17T08:31:50.269Z,6.35
2023-09-17T08:34:53.043Z,4.55
2023-09-17T08:37:56.656Z,4.60
2023-09-17T08:41:00.058Z,4.87
2023-09-17T08:44:05.153Z,4.40
2023-09-17T08:47:07.962Z,4.75
2023-09-17T08:50:10.904Z,4.60
2023-09-17T08:53:15.176Z,4.40
2023-09-17T08:56:24.125Z,5.47
2023-09-17T08:59:29.377Z,4.47
2023-09-17T09:02:33.878Z,4.72
2023-09-17T09:05:37.345Z,5.07
2023-09-17T09:08:44.275Z,4.55
2023-09-17T09:11:47.519Z,4.75
2023-09-17T09:14:51.028Z,4.70
2023-09-17T09:17:56.654Z,4.25
2023-09-17T09:21:00.271Z,5.07
2023-09-17T09:24:03.137Z,4.97
2023-09-17T09:27:08.927Z,5.12
2023-09-17T09:30:13.310Z,5.30
2023-09-17T09:33:22.774Z,4.85
2023-09-17T09:36:28.311Z,5.20
2023-09-17T09:39:37.649Z,5.12
2023-09-17T09:42:40.500Z,5.32
2023-09-17T09:45:43.586Z,5.20
2023-09-17T09:48:48.280Z,5.90
2023-09-17T09:51:51.294Z,6.30
2023-09-17T09:54:54.093Z,6.12
2023-09-17T09:57:57.122Z,5.30
2023-09-17T10:01:03.670Z,5.30
2023-09-17T10:04:10.573Z,5.07
2023-09-17T10:07:15.510Z,5.22
2023-09-17T10:10:21.598Z,5.43
2023-09-17T10:13:24.374Z,5.50
2023-09-17T10:16:27.656Z,5.20
2023-09-17T10:19:32.506Z,5.47
2023-09-17T10:22:36.753Z,5.30
2023-09-17T10:25:41.491Z,5.62
2023-09-17T10:28:45.548Z,5.40
2023-09-17T10:31:48.480Z,5.23
2023-09-17T10:34:54.548Z,5.90
2023-09-17T10:38:00.431Z,5.80
2023-09-17T10:41:06.291Z,5.70
2023-09-17T10:44:09.434Z,5.60
2023-09-17T10:47:13.088Z,5.77
2023-09-17T10:50:16.586Z,5.97
2023-09-17T10:53:19.413Z,5.93
2023-09-17T10:56:23.327Z,5.65
2023-09-17T10:59:26.440Z,5.62
2023-09-17T11:02:30.507Z,6.00
2023-09-17T11:05:34.477Z,5.72
2023-09-17T11:08:37.353Z,5.90
2023-09-17T11:11:42.263Z,5.45
2023-09-17T11:14:48.034Z,5.37
2023-09-17T11:17:51.732Z,5.40
2023-09-17T11:21:11.252Z,5.65
2023-09-17T11:24:15.372Z,5.70
2023-09-17T11:27:20.498Z,5.78
2023-09-17T11:30:26.485Z,5.62
2023-09-17T11:33:29.499Z,5.50
2023-09-17T11:36:33.593Z,5.90
2023-09-17T11:39:50.474Z,5.93
2023-09-17T11:42:53.332Z,5.80
2023-09-17T11:45:56.208Z,6.90
2023-09-17T11:48:58.976Z,5.90
2023-09-17T11:52:01.759Z,5.80
2023-09-17T11:55:13.420Z,6.12
2023-09-17T11:58:20.377Z,5.62
2023-09-17T12:01:25.464Z,5.90
2023-09-17T12:04:33.603Z,5.37
2023-09-17T12:07:53.056Z,5.72
2023-09-17T12:11:03.665Z,5.97
2023-09-17T12:14:08.464Z,5.55
2023-09-17T12:17:11.903Z,5.78
2023-09-17T12:20:42.446Z,6.27
2023-09-17T12:24:05.675Z,5.90
2023-09-17T12:27:33.419Z,5.78
2023-09-17T12:30:36.469Z,6.43
2023-09-17T12:33:39.905Z,5.90
2023-09-17T12:36:44.023Z,5.90
2023-09-17T12:39:48.190Z,5.75
2023-09-17T12:42:51.843Z,6.20
2023-09-17T12:45:54.635Z,6.45
2023-09-17T12:48:57.912Z,5.90
2023-09-17T12:52:05.307Z,6.30
2023-09-17T12:55:08.615Z,16.67
2023-09-17T12:58:12.027Z,5.80
2023-09-17T13:01:15.705Z,5.80
2023-09-17T13:04:18.607Z,5.93
2023-09-17T13:07:23.003Z,6.07
2023-09-17T13:10:27.617Z,6.35
2023-09-17T13:13:31.524Z,6.18
2023-09-17T13:16:34.472Z,5.78
2023-09-17T13:19:38.248Z,5.70
2023-09-17T13:22:41.789Z,5.80
2023-09-17T13:25:44.650Z,6.10
2023-09-17T13:28:53.430Z,6.00
2023-09-17T13:31:56.813Z,6.00
2023-09-17T13:35:00.258Z,6.00
2023-09-17T13:38:03.581Z,6.30
2023-09-17T13:41:06.451Z,6.20
2023-09-17T13:44:09.508Z,6.00
2023-09-17T13:47:13.314Z,6.57
2023-09-17T13:50:16.849Z,6.30
2023-09-17T13:53:21.644Z,6.30
2023-09-17T13:56:24.670Z,6.10
2023-09-17T13:59:27.445Z,6.15
2023-09-17T14:02:30.470Z,6.05
2023-09-17T14:05:33.282Z,6.43
2023-09-17T14:08:36.349Z,5.87
2023-09-17T14:11:40.243Z,6.10
2023-09-17T14:14:42.999Z,5.85
2023-09-17T14:17:45.935Z,5.90
2023-09-17T14:20:48.760Z,6.10
2023-09-17T14:23:51.696Z,5.80
2023-09-17T14:26:54.602Z,5.97
2023-09-17T14:29:57.407Z,6.00
2023-09-17T14:33:02.083Z,6.20
2023-09-17T14:36:05.164Z,5.93
2023-09-17T14:39:12.036Z,6.10
2023-09-17T14:42:15.396Z,5.87
2023-09-17T14:45:18.228Z,6.50
2023-09-17T14:48:24.183Z,6.15
2023-09-17T14:51:27.972Z,6.07
2023-09-17T14:54:30.872Z,5.80
2023-09-17T14:57:37.191Z,6.30
2023-09-17T15:00:40.030Z,6.28
2023-09-17T15:03:42.949Z,6.32
2023-09-17T15:06:45.831Z,6.10
2023-09-17T15:09:49.309Z,6.87
2023-09-17T15:12:52.226Z,6.20
2023-09-17T15:15:54.953Z,6.90
2023-09-17T15:18:58.105Z,6.20
2023-09-17T15:22:01.236Z,6.37
2023-09-17T15:25:04.817Z,6.07
2023-09-17T15:28:08.690Z,6.05
2023-09-17T15:31:11.548Z,6.20
2023-09-17T15:34:15.538Z,5.95
2023-09-17T15:37:18.644Z,6.10
2023-09-17T15:40:21.750Z,19.70
2023-09-17T15:43:25.884Z,6.03
2023-09-17T15:46:28.685Z,6.20
2023-09-17T15:49:31.755Z,6.47
2023-09-17T15:52:34.805Z,6.18
2023-09-17T15:55:37.901Z,6.00
2023-09-17T15:58:42.728Z,5.80
2023-09-17T16:01:46.292Z,6.30
2023-09-17T16:04:49.325Z,5.90
2023-09-17T16:07:52.102Z,6.00
2023-09-17T16:10:55.668Z,6.23
2023-09-17T16:14:00.447Z,6.30
2023-09-17T16:17:03.297Z,6.10
2023-09-17T16:20:06.777Z,6.07
2023-09-17T16:23:09.636Z,5.90
2023-09-17T16:26:12.425Z,6.70
2023-09-17T16:29:15.348Z,6.00
2023-09-17T16:32:20.091Z,6.05
2023-09-17T16:35:23.126Z,5.80
2023-09-17T16:38:25.893Z,5.70
2023-09-17T16:41:28.713Z,5.70
2023-09-17T16:44:31.522Z,5.62
2023-09-17T16:47:34.613Z,5.35
2023-09-17T16:50:37.533Z,5.50
2023-09-17T16:53:40.689Z,5.60
2023-09-17T16:56:48.007Z,6.27
2023-09-17T16:59:51.015Z,5.50
2023-09-17T17:02:54.091Z,5.18
2023-09-17T17:05:57.131Z,5.18
2023-09-17T17:09:00.031Z,5.25
2023-09-17T17:12:02.929Z,6.40
2023-09-17T17:15:06.470Z,5.20
2023-09-17T17:18:12.645Z,5.32
2023-09-17T17:21:18.878Z,5.00
2023-09-17T17:24:21.703Z,4.55
2023-09-17T17:27:24.509Z,4.73
2023-09-17T17:30:27.810Z,5.10
2023-09-17T17:33:30.575Z,4.72
2023-09-17T17:36:33.356Z,4.72
2023-09-17T17:39:38.980Z,4.47
2023-09-17T17:42:43.044Z,4.50
2023-09-17T17:45:46.069Z,5.28
2023-09-17T17:48:50.773Z,4.03
2023-09-17T17:51:53.436Z,4.65
2023-09-17T17:54:56.293Z,4.70
2023-09-17T17:57:59.082Z,4.57
2023-09-17T18:01:02.389Z,5.68
2023-09-17T18:04:05.802Z,4.60
2023-09-17T18:07:08.938Z,4.00
2023-09-17T18:10:15.591Z,5.25
2023-09-17T18:13:19.003Z,4.33
2023-09-17T18:16:22.431Z,6.65
2023-09-17T18:19:25.912Z,4.43
2023-09-17T18:22:31.227Z,4.20
2023-09-17T18:25:40.975Z,3.78
2023-09-17T18:28:46.501Z,4.13
2023-09-17T18:31:50.092Z,3.97
2023-09-17T18:34:54.897Z,4.72
2023-09-17T18:37:58.101Z,4.82
2023-09-17T18:41:01.959Z,4.40
2023-09-17T18:44:05.313Z,4.07
2023-09-17T18:47:10.643Z,7.32
2023-09-17T18:50:14.751Z,46.90
2023-09-17T18:53:18.038Z,63.28
2023-09-17T18:56:21.430Z,73.62
2023-09-17T18:59:25.774Z,64.43
2023-09-17T19:02:29.043Z,75.70
2023-09-17T19:05:32.717Z,81.68
2023-09-17T19:08:37.655Z,67.28
2023-09-17T19:11:40.799Z,86.22
2023-09-17T19:14:48.066Z,73.27
2023-09-17T19:17:51.335Z,69.28
2023-09-17T19:21:11.071Z,65.85
2023-09-17T19:24:14.796Z,61.75
2023-09-17T19:27:17.928Z,51.53
2023-09-17T19:30:21.070Z,44.17
2023-09-17T19:33:24.171Z,50.63
2023-09-17T19:36:28.220Z,39.92
2023-09-17T19:39:31.613Z,38.42
2023-09-17T19:42:36.194Z,37.22
2023-09-17T19:45:39.316Z,35.53
2023-09-17T19:48:42.244Z,44.88
2023-09-17T19:51:45.689Z,33.97
2023-09-17T19:54:48.934Z,33.95
2023-09-17T19:57:52.219Z,36.03
2023-09-17T20:00:55.225Z,35.27
2023-09-17T20:03:59.366Z,36.28
2023-09-17T20:07:02.414Z,38.40
2023-09-17T20:10:08.392Z,32.42
2023-09-17T20:13:11.319Z,34.03
2023-09-17T20:16:15.565Z,32.93
2023-09-17T20:19:18.811Z,47.10
2023-09-17T20:22:21.572Z,29.80
2023-09-17T20:25:29.448Z,31.90
2023-09-17T20:28:32.486Z,39.58
2023-09-17T20:31:35.428Z,38.03
2023-09-17T20:34:38.217Z,44.67
2023-09-17T20:37:41.002Z,33.78
2023-09-17T20:40:44.022Z,42.75
2023-09-17T20:43:46.800Z,43.95
2023-09-17T20:46:49.659Z,47.23
2023-09-17T20:49:52.532Z,46.08
2023-09-17T20:52:55.367Z,43.30
2023-09-17T20:55:58.269Z,40.12
2023-09-17T20:59:01.140Z,36.45
2023-09-17T21:02:04.641Z,37.23
2023-09-17T21:05:07.710Z,27.85
2023-09-17T21:08:10.937Z,23.52
2023-09-17T21:11:13.811Z,28.33
2023-09-17T21:14:16.803Z,29.67
2023-09-17T21:17:19.841Z,25.60
2023-09-17T21:20:22.672Z,26.23
2023-09-17T21:23:25.402Z,21.00
2023-09-17T21:26:28.542Z,24.08
2023-09-17T21:29:31.287Z,22.23
2023-09-17T21:32:34.162Z,27.27
2023-09-17T21:35:37.376Z,18.10
2023-09-17T21:38:40.985Z,19.05
2023-09-17T21:41:43.752Z,17.67
2023-09-17T21:44:46.512Z,19.70
2023-09-17T21:47:49.462Z,17.00
2023-09-17T21:50:55.212Z,17.40
2023-09-17T21:53:58.056Z,15.52
2023-09-17T21:57:09.752Z,14.55
2023-09-17T22:00:23.243Z,14.27
2023-09-17T22:03:26.332Z,12.50
2023-09-17T22:06:29.427Z,13.45
2023-09-17T22:09:35.115Z,13.60
2023-09-17T22:12:38.068Z,15.65
2023-09-17T22:15:40.761Z,12.25
2023-09-17T22:18:43.708Z,11.20
2023-09-17T22:21:46.809Z,8.68
2023-09-17T22:24:49.739Z,12.88
2023-09-17T22:27:55.784Z,8.90
2023-09-17T22:31:00.272Z,9.77
2023-09-17T22:34:03.006Z,11.20
2023-09-17T22:37:05.746Z,9.10
2023-09-17T22:40:09.281Z,9.70
2023-09-17T22:43:12.276Z,9.85
2023-09-17T22:46:19.219Z,12.15
2023-09-17T22:49:24.493Z,11.70
2023-09-17T22:52:27.947Z,12.32
2023-09-17T22:55:31.011Z,11.23
2023-09-17T22:58:34.237Z,14.40
2023-09-17T23:01:40.261Z,12.02
2023-09-17T23:04:43.126Z,15.63
2023-09-17T23:07:45.952Z,10.38
2023-09-17T23:10:48.699Z,9.88
2023-09-17T23:13:51.524Z,10.93
2023-09-17T23:16:54.201Z,12.13
2023-09-17T23:19:58.387Z,14.83
2023-09-17T23:23:01.034Z,9.93
2023-09-17T23:26:05.071Z,11.45
2023-09-17T23:29:09.707Z,9.70
2023-09-17T23:32:15.402Z,9.85
2023-09-17T23:35:18.267Z,10.53
2023-09-17T23:38:21.053Z,9.45
2023-09-17T23:41:24.493Z,7.18
2023-09-17T23:44:27.798Z,11.25
2023-09-17T23:47:30.832Z,10.57
2023-09-17T23:50:33.676Z,9.63
2023-09-17T23:53:37.746Z,9.98
2023-09-17T23:56:40.475Z,13.65
2023-09-17T23:59:43.256Z,9.38
